CYWG/YWG METAR and TAF weather

Enter ICAO airport designator
Station Type Date Time Source
CYWG METAR 2018/01/22 20:00 UTC NOAA

CYWG 222000Z 36005KT 15SM OVC020 M03/M08 A3009 RMK SC8 WND ESTD SLP208


Station Type Date Time Source
CYWG Decoded METAR 2018/01/22 20:00 UTC NOAA

Winnipeg Int. Airportman., Canada (CYWG) 49-54N 097-14W 239M
Jan 22, 2018 - 03:00 PM EST / 2018.01.22 2000 UTC
Wind: from the N (360 degrees) at 6 MPH (5 KT):0
Visibility: 15 mile(s):0
Sky conditions: overcast
Temperature: 26 F (-3 C)
Windchill: 19 F (-7 C):1
Dew Point: 17 F (-8 C)
Relative Humidity: 68%
Pressure (altimeter): 30.09 in. Hg (1018 hPa)
ob: CYWG 222000Z 36005KT 15SM OVC020 M03/M08 A3009 RMK SC8 WND ESTD SLP208
cycle: 20

Station Type Date Time Source
CYWG TAF 2018/01/22 18:42 UTC NOAA

TAF CYWG 221740Z 2218/2318 VRB03KT P6SM OVC020
TEMPO 2218/2224 OVC025
FM230000 08006KT P6SM OVC025
TEMPO 2300/2308 OVC020
FM230800 07006KT P6SM BKN006 OVC020
FM231500 17010KT P6SM OVC004
RMK NXT FCST BY 230000Z


Example: see airport list